createdAt,value
2018-10-07T00:01:29.817Z,16.20
2018-10-07T00:03:57.886Z,16.20
2018-10-07T00:06:25.932Z,16.20
2018-10-07T00:08:54.031Z,16.20
2018-10-07T00:11:22.167Z,16.20
2018-10-07T00:13:50.291Z,16.10
2018-10-07T00:16:18.336Z,16.10
2018-10-07T00:18:46.396Z,16.10
2018-10-07T00:21:14.438Z,16.10
2018-10-07T00:23:42.501Z,16.20
2018-10-07T00:26:10.565Z,16.10
2018-10-07T00:28:38.624Z,16.10
2018-10-07T00:31:06.677Z,16.10
2018-10-07T00:33:34.816Z,16.10
2018-10-07T00:36:02.875Z,16.00
2018-10-07T00:38:30.917Z,16.00
2018-10-07T00:40:58.986Z,15.90
2018-10-07T00:43:27.059Z,15.90
2018-10-07T00:45:55.113Z,15.90
2018-10-07T00:48:23.177Z,15.80
2018-10-07T00:50:51.248Z,15.70
2018-10-07T00:53:19.326Z,15.70
2018-10-07T00:55:47.369Z,15.70
2018-10-07T00:58:15.436Z,15.70
2018-10-07T01:00:43.482Z,15.70
2018-10-07T01:03:11.536Z,15.70
2018-10-07T01:05:39.627Z,15.70
2018-10-07T01:08:07.676Z,15.80
2018-10-07T01:10:35.769Z,15.80
2018-10-07T01:13:03.821Z,15.80
2018-10-07T01:15:31.878Z,15.80
2018-10-07T01:17:59.953Z,15.80
2018-10-07T01:20:28.053Z,15.70
2018-10-07T01:22:56.104Z,15.70
2018-10-07T01:25:24.196Z,15.70
2018-10-07T01:27:52.257Z,15.70
2018-10-07T01:30:22.319Z,15.70
2018-10-07T01:32:51.917Z,15.70
2018-10-07T01:35:20.004Z,15.70
2018-10-07T01:37:48.468Z,15.70
2018-10-07T01:40:16.557Z,15.70
2018-10-07T01:42:44.716Z,15.70
2018-10-07T01:45:12.760Z,15.70
2018-10-07T01:47:40.849Z,15.70
2018-10-07T01:50:08.956Z,15.70
2018-10-07T01:52:37.335Z,15.80
2018-10-07T01:55:05.496Z,15.80
2018-10-07T01:57:33.573Z,15.70
2018-10-07T02:00:01.662Z,15.70
2018-10-07T02:02:29.826Z,15.80
2018-10-07T02:04:57.948Z,15.80
2018-10-07T02:07:26.109Z,15.80
2018-10-07T02:09:54.184Z,15.80
2018-10-07T02:12:22.345Z,15.70
2018-10-07T02:14:50.428Z,15.70
2018-10-07T02:17:18.497Z,15.70
2018-10-07T02:19:46.596Z,15.70
2018-10-07T02:22:14.689Z,15.70
2018-10-07T02:24:42.775Z,15.60
2018-10-07T02:27:10.893Z,15.70
2018-10-07T02:29:39.057Z,15.60
2018-10-07T02:32:07.125Z,15.50
2018-10-07T02:34:35.285Z,15.50
2018-10-07T02:37:03.400Z,15.40
2018-10-07T02:39:31.448Z,15.40
2018-10-07T02:41:59.520Z,15.30
2018-10-07T02:44:27.663Z,15.20
2018-10-07T02:46:55.716Z,15.20
2018-10-07T02:49:23.760Z,15.20
2018-10-07T02:51:51.845Z,15.20
2018-10-07T02:54:19.901Z,15.30
2018-10-07T02:56:47.961Z,15.30
2018-10-07T02:59:16.493Z,15.30
2018-10-07T03:01:44.565Z,15.30
2018-10-07T03:04:12.613Z,15.20
2018-10-07T03:06:40.683Z,15.20
2018-10-07T03:09:09.589Z,15.30
2018-10-07T03:11:37.662Z,15.20
2018-10-07T03:14:05.744Z,15.30
2018-10-07T03:16:33.796Z,15.30
2018-10-07T03:19:01.860Z,15.20
2018-10-07T03:21:30.149Z,15.20
2018-10-07T03:23:58.196Z,15.20
2018-10-07T03:26:26.298Z,15.20
2018-10-07T03:28:54.351Z,15.20
2018-10-07T03:31:22.416Z,15.20
2018-10-07T03:33:50.544Z,15.20
2018-10-07T03:36:18.665Z,15.10
2018-10-07T03:38:46.829Z,15.10
2018-10-07T03:41:14.959Z,15.10
2018-10-07T03:43:43.124Z,15.10
2018-10-07T03:46:11.233Z,15.10
2018-10-07T03:48:39.329Z,15.00
2018-10-07T03:51:07.468Z,15.00
2018-10-07T03:53:35.545Z,14.90
2018-10-07T03:56:03.637Z,14.90
2018-10-07T03:58:31.788Z,14.80
2018-10-07T04:00:59.901Z,14.80
2018-10-07T04:03:27.989Z,14.70
2018-10-07T04:05:56.128Z,14.70
2018-10-07T04:08:24.232Z,14.70
2018-10-07T04:10:52.313Z,14.70
2018-10-07T04:13:20.436Z,14.70
2018-10-07T04:15:48.550Z,14.70
2018-10-07T04:18:16.652Z,14.70
2018-10-07T04:20:44.757Z,14.70
2018-10-07T04:23:12.847Z,14.60
2018-10-07T04:25:40.930Z,14.60
2018-10-07T04:28:09.021Z,14.60
2018-10-07T04:30:37.104Z,14.60
2018-10-07T04:33:05.175Z,14.60
2018-10-07T04:35:33.299Z,14.50
2018-10-07T04:38:01.402Z,14.50
2018-10-07T04:40:29.489Z,14.50
2018-10-07T04:42:57.548Z,14.50
2018-10-07T04:45:25.640Z,14.40
2018-10-07T04:47:53.720Z,14.40
2018-10-07T04:50:21.814Z,14.40
2018-10-07T04:52:49.884Z,14.40
2018-10-07T04:55:17.976Z,14.40
2018-10-07T04:57:46.065Z,14.40
2018-10-07T05:00:14.231Z,14.40
2018-10-07T05:02:42.313Z,14.30
2018-10-07T05:05:10.420Z,14.20
2018-10-07T05:07:38.509Z,14.20
2018-10-07T05:10:19.912Z,14.20
2018-10-07T05:12:48.104Z,14.20
2018-10-07T05:15:16.283Z,14.10
2018-10-07T05:17:44.371Z,14.10
2018-10-07T05:20:12.486Z,14.10
2018-10-07T05:22:40.545Z,14.10
2018-10-07T05:25:08.650Z,14.10
2018-10-07T05:27:36.798Z,14.10
2018-10-07T05:30:04.890Z,14.10
2018-10-07T05:32:32.968Z,14.10
2018-10-07T05:35:01.088Z,14.10
2018-10-07T05:37:29.173Z,14.10
2018-10-07T05:39:57.260Z,14.10
2018-10-07T05:42:25.349Z,14.10
2018-10-07T05:44:53.519Z,14.10
2018-10-07T05:47:21.523Z,14.10
2018-10-07T05:49:49.644Z,14.10
2018-10-07T05:52:17.767Z,14.10
2018-10-07T05:54:45.876Z,14.10
2018-10-07T05:57:13.956Z,14.00
2018-10-07T05:59:42.050Z,14.00
2018-10-07T06:02:10.240Z,14.00
2018-10-07T06:04:41.447Z,14.00
2018-10-07T06:07:09.620Z,14.00
2018-10-07T06:09:38.145Z,14.00
2018-10-07T06:12:06.388Z,14.10
2018-10-07T06:14:46.139Z,14.20
2018-10-07T06:17:14.191Z,14.50
2018-10-07T06:19:42.276Z,14.60
2018-10-07T06:22:10.346Z,14.50
2018-10-07T06:24:38.425Z,14.40
2018-10-07T06:27:06.897Z,14.40
2018-10-07T06:29:34.969Z,14.30
2018-10-07T06:32:03.054Z,14.30
2018-10-07T06:34:31.168Z,14.20
2018-10-07T06:36:59.283Z,14.20
2018-10-07T06:39:27.382Z,14.20
2018-10-07T06:41:55.442Z,14.30
2018-10-07T06:44:23.513Z,14.30
2018-10-07T06:46:58.161Z,14.40
2018-10-07T06:49:26.255Z,14.40
2018-10-07T06:51:54.332Z,14.60
2018-10-07T06:54:22.436Z,14.70
2018-10-07T06:56:50.940Z,14.70
2018-10-07T06:59:19.023Z,14.80
2018-10-07T07:01:47.103Z,14.90
2018-10-07T07:04:15.413Z,15.10
2018-10-07T07:06:43.572Z,15.20
2018-10-07T07:09:12.204Z,15.30
2018-10-07T07:11:40.362Z,15.40
2018-10-07T07:14:08.453Z,15.50
2018-10-07T07:16:36.529Z,15.60
2018-10-07T07:19:04.593Z,15.70
2018-10-07T07:21:32.683Z,15.80
2018-10-07T07:24:00.820Z,15.90
2018-10-07T07:26:28.991Z,16.00
2018-10-07T07:28:57.084Z,16.20
2018-10-07T07:31:25.273Z,16.30
2018-10-07T07:33:53.328Z,16.40
2018-10-07T07:36:21.392Z,16.50
2018-10-07T07:38:49.565Z,16.60
2018-10-07T07:41:17.703Z,16.70
2018-10-07T07:43:45.836Z,16.80
2018-10-07T07:46:13.933Z,16.90
2018-10-07T07:48:42.037Z,16.90
2018-10-07T07:51:10.128Z,16.90
2018-10-07T07:53:38.528Z,17.00
2018-10-07T07:56:06.728Z,17.10
2018-10-07T07:58:34.788Z,17.10
2018-10-07T08:01:02.866Z,17.30
2018-10-07T08:03:31.093Z,17.30
2018-10-07T08:05:59.173Z,17.40
2018-10-07T08:08:27.326Z,17.40
2018-10-07T08:10:55.421Z,17.50
2018-10-07T08:13:23.566Z,17.60
2018-10-07T08:15:51.648Z,17.90
2018-10-07T08:18:19.772Z,18.10
2018-10-07T08:20:47.849Z,18.20
2018-10-07T08:23:15.962Z,18.20
2018-10-07T08:25:44.046Z,18.10
2018-10-07T08:28:12.137Z,18.20
2018-10-07T08:30:40.433Z,18.10
2018-10-07T08:33:08.544Z,18.10
2018-10-07T08:35:36.618Z,18.00
2018-10-07T08:38:04.704Z,17.90
2018-10-07T08:40:32.815Z,18.00
2018-10-07T08:43:00.882Z,18.00
2018-10-07T08:45:28.972Z,17.90
2018-10-07T08:47:57.072Z,17.90
2018-10-07T08:50:25.154Z,17.90
2018-10-07T08:52:53.257Z,17.80
2018-10-07T08:55:21.326Z,17.80
2018-10-07T08:57:49.625Z,17.90
2018-10-07T09:00:17.773Z,18.00
2018-10-07T09:02:45.856Z,18.00
2018-10-07T09:05:14.017Z,17.90
2018-10-07T09:07:42.154Z,17.90
2018-10-07T09:10:10.225Z,17.90
2018-10-07T09:12:38.366Z,17.80
2018-10-07T09:15:06.485Z,17.70
2018-10-07T09:17:34.668Z,17.40
2018-10-07T09:20:03.048Z,17.40
2018-10-07T09:22:31.138Z,17.30
2018-10-07T09:24:59.249Z,17.30
2018-10-07T09:27:27.393Z,17.20
2018-10-07T09:29:55.611Z,17.00
2018-10-07T09:32:23.870Z,16.90
2018-10-07T09:34:52.016Z,16.80
2018-10-07T09:37:20.109Z,16.70
2018-10-07T09:39:48.273Z,16.70
2018-10-07T09:42:22.936Z,16.60
2018-10-07T09:44:51.069Z,16.60
2018-10-07T09:47:19.262Z,16.60
2018-10-07T09:49:47.351Z,16.50
2018-10-07T09:52:15.491Z,16.40
2018-10-07T09:54:43.817Z,16.50
2018-10-07T09:57:11.897Z,16.50
2018-10-07T09:59:40.009Z,16.50
2018-10-07T10:02:08.089Z,16.40
2018-10-07T10:04:36.255Z,16.30
2018-10-07T10:07:04.425Z,16.20
2018-10-07T10:09:34.631Z,16.20
2018-10-07T10:12:02.767Z,16.20
2018-10-07T10:14:30.904Z,16.20
2018-10-07T10:17:01.943Z,16.30
2018-10-07T10:19:42.625Z,16.10
2018-10-07T10:22:40.050Z,15.90
2018-10-07T10:25:18.297Z,15.90
2018-10-07T10:27:58.657Z,15.80
2018-10-07T10:32:44.192Z,15.80
2018-10-07T10:35:21.044Z,15.80
2018-10-07T10:40:03.502Z,15.90
2018-10-07T10:42:55.165Z,15.80
2018-10-07T10:45:56.516Z,15.80
2018-10-07T10:48:28.213Z,15.70
2018-10-07T10:53:07.525Z,15.70
2018-10-07T10:55:43.914Z,15.60
2018-10-07T10:58:18.969Z,15.40
2018-10-07T11:00:51.803Z,15.40
2018-10-07T11:03:39.125Z,15.30
2018-10-07T11:07:14.320Z,15.20
2018-10-07T11:09:51.730Z,15.10
2018-10-07T11:12:37.232Z,15.10
2018-10-07T11:15:39.770Z,15.10
2018-10-07T11:18:27.027Z,15.10
2018-10-07T11:21:19.288Z,15.10
2018-10-07T11:23:51.975Z,15.10
2018-10-07T11:26:31.582Z,15.00
2018-10-07T11:29:12.897Z,15.00
2018-10-07T11:31:51.232Z,15.00
2018-10-07T11:34:34.776Z,15.00
2018-10-07T11:37:10.869Z,15.00
2018-10-07T11:40:44.276Z,15.10
2018-10-07T11:45:22.291Z,15.10
2018-10-07T11:48:03.504Z,15.20
2018-10-07T11:50:47.856Z,15.20
2018-10-07T11:53:32.249Z,15.20
2018-10-07T11:56:00.356Z,15.30
2018-10-07T11:58:28.489Z,15.40
2018-10-07T12:00:56.528Z,15.50
2018-10-07T12:03:24.609Z,15.60
2018-10-07T12:05:52.667Z,15.60
2018-10-07T12:08:20.721Z,15.50
2018-10-07T12:10:48.780Z,15.40
2018-10-07T12:13:16.832Z,15.40
2018-10-07T12:15:44.928Z,15.30
2018-10-07T12:18:13.405Z,15.20
2018-10-07T12:20:41.462Z,15.10
2018-10-07T12:23:09.560Z,15.00
2018-10-07T12:25:37.904Z,15.00
2018-10-07T12:28:06.249Z,14.90
2018-10-07T12:30:34.302Z,14.80
2018-10-07T12:33:02.370Z,14.80
2018-10-07T12:35:30.438Z,14.80
2018-10-07T12:37:58.499Z,14.80
2018-10-07T12:40:26.577Z,14.80
2018-10-07T12:42:55.018Z,14.80
2018-10-07T12:45:23.092Z,14.70
2018-10-07T12:47:53.321Z,14.60
2018-10-07T12:50:21.474Z,14.50
2018-10-07T12:52:50.139Z,14.50
2018-10-07T12:55:18.256Z,14.50
2018-10-07T12:57:46.280Z,14.50
2018-10-07T13:00:14.342Z,14.50
2018-10-07T13:02:42.428Z,14.50
2018-10-07T13:05:10.529Z,14.50
2018-10-07T13:07:38.720Z,14.40
2018-10-07T13:10:06.851Z,14.40
2018-10-07T13:12:35.120Z,14.30
2018-10-07T13:15:03.215Z,14.30
2018-10-07T13:17:32.198Z,14.30
2018-10-07T13:20:00.294Z,14.20
2018-10-07T13:22:28.418Z,14.10
2018-10-07T13:24:56.502Z,14.10
2018-10-07T13:27:26.325Z,14.10
2018-10-07T13:29:54.420Z,14.00
2018-10-07T13:32:22.500Z,13.90
2018-10-07T13:34:50.549Z,13.80
2018-10-07T13:37:18.666Z,13.90
2018-10-07T13:39:48.041Z,13.90
2018-10-07T13:42:16.126Z,13.80
2018-10-07T13:44:44.227Z,13.70
2018-10-07T13:47:13.288Z,13.80
2018-10-07T13:49:42.009Z,13.80
2018-10-07T13:52:10.068Z,13.70
2018-10-07T13:54:38.244Z,13.60
2018-10-07T13:57:06.437Z,13.60
2018-10-07T13:59:34.514Z,13.50
2018-10-07T14:02:02.588Z,13.50
2018-10-07T14:04:30.644Z,13.40
2018-10-07T14:06:58.705Z,13.40
2018-10-07T14:09:27.504Z,13.30
2018-10-07T14:11:55.572Z,13.30
2018-10-07T14:14:23.653Z,13.30
2018-10-07T14:16:51.735Z,13.30
2018-10-07T14:19:19.843Z,13.30
2018-10-07T14:21:47.887Z,13.30
2018-10-07T14:24:15.964Z,13.20
2018-10-07T14:26:44.102Z,13.20
2018-10-07T14:29:12.256Z,13.20
2018-10-07T14:31:40.502Z,13.20
2018-10-07T14:34:08.597Z,13.20
2018-10-07T14:36:36.779Z,13.10
2018-10-07T14:39:08.338Z,13.10
2018-10-07T14:41:36.951Z,13.00
2018-10-07T14:44:05.000Z,13.00
2018-10-07T14:46:33.069Z,13.00
2018-10-07T14:49:01.106Z,13.00
2018-10-07T14:51:30.191Z,12.90
2018-10-07T14:53:58.152Z,12.90
2018-10-07T14:56:26.206Z,12.80
2018-10-07T14:58:54.322Z,12.80
2018-10-07T15:01:22.453Z,12.90
2018-10-07T15:03:50.637Z,12.80
2018-10-07T15:06:19.518Z,12.90
2018-10-07T15:08:48.573Z,12.90
2018-10-07T15:11:16.742Z,12.90
2018-10-07T15:13:44.852Z,12.80
2018-10-07T15:16:13.157Z,12.90
2018-10-07T15:18:41.233Z,12.80
2018-10-07T15:21:09.312Z,12.80
2018-10-07T15:23:37.492Z,12.80
2018-10-07T15:26:05.529Z,12.70
2018-10-07T15:28:33.635Z,12.70
2018-10-07T15:31:01.697Z,12.70
2018-10-07T15:33:34.475Z,12.70
2018-10-07T15:36:02.563Z,12.70
2018-10-07T15:38:30.641Z,12.70
2018-10-07T15:40:58.733Z,12.70
2018-10-07T15:43:26.806Z,12.60
2018-10-07T15:45:54.880Z,12.60
2018-10-07T15:48:22.923Z,12.60
2018-10-07T15:50:51.101Z,12.60
2018-10-07T15:53:19.174Z,12.60
2018-10-07T15:55:47.265Z,12.60
2018-10-07T15:58:15.358Z,12.60
2018-10-07T16:00:43.439Z,12.60
2018-10-07T16:03:11.488Z,12.50
2018-10-07T16:05:39.549Z,12.50
2018-10-07T16:08:07.625Z,12.50
2018-10-07T16:10:35.678Z,12.50
2018-10-07T16:13:03.777Z,12.50
2018-10-07T16:15:31.818Z,12.40
2018-10-07T16:17:59.908Z,12.40
2018-10-07T16:20:28.007Z,12.40
2018-10-07T16:22:56.444Z,12.40
2018-10-07T16:25:24.566Z,12.40
2018-10-07T16:27:52.699Z,12.40
2018-10-07T16:30:20.830Z,12.40
2018-10-07T16:32:48.894Z,12.40
2018-10-07T16:35:17.062Z,12.60
2018-10-07T16:37:45.186Z,12.60
2018-10-07T16:40:13.253Z,12.50
2018-10-07T16:42:41.356Z,12.50
2018-10-07T16:45:09.526Z,12.40
2018-10-07T16:47:37.541Z,12.30
2018-10-07T16:50:05.671Z,12.30
2018-10-07T16:52:33.874Z,12.30
2018-10-07T16:55:01.965Z,12.20
2018-10-07T16:57:30.150Z,12.20
2018-10-07T16:59:58.233Z,12.20
2018-10-07T17:02:26.337Z,12.20
2018-10-07T17:04:55.977Z,12.20
2018-10-07T17:07:24.101Z,12.20
2018-10-07T17:09:58.981Z,12.20
2018-10-07T17:12:27.061Z,12.10
2018-10-07T17:14:55.201Z,12.10
2018-10-07T17:17:23.365Z,12.10
2018-10-07T17:19:51.440Z,12.10
2018-10-07T17:22:19.527Z,12.10
2018-10-07T17:24:47.840Z,12.10
2018-10-07T17:27:16.279Z,12.10
2018-10-07T17:29:44.334Z,12.10
2018-10-07T17:32:12.437Z,12.10
2018-10-07T17:34:40.518Z,12.10
2018-10-07T17:37:08.583Z,12.10
2018-10-07T17:39:36.678Z,12.10
2018-10-07T17:42:04.881Z,12.10
2018-10-07T17:44:32.984Z,12.10
2018-10-07T17:47:01.130Z,12.00
2018-10-07T17:49:29.359Z,12.10
2018-10-07T17:51:57.580Z,12.10
2018-10-07T17:54:25.674Z,12.10
2018-10-07T17:56:53.841Z,12.10
2018-10-07T17:59:21.949Z,12.20
2018-10-07T18:01:51.523Z,12.20
2018-10-07T18:04:19.681Z,12.10
2018-10-07T18:06:47.960Z,12.00
2018-10-07T18:09:16.234Z,12.10
2018-10-07T18:11:45.446Z,12.20
2018-10-07T18:14:13.577Z,12.20
2018-10-07T18:16:41.696Z,12.00
2018-10-07T18:19:09.862Z,12.00
2018-10-07T18:21:38.000Z,11.90
2018-10-07T18:24:06.386Z,11.90
2018-10-07T18:26:34.697Z,11.90
2018-10-07T18:29:02.864Z,11.90
2018-10-07T18:31:30.956Z,11.90
2018-10-07T18:33:59.282Z,11.80
2018-10-07T18:36:27.389Z,11.80
2018-10-07T18:38:56.587Z,12.00
2018-10-07T18:41:26.585Z,12.30
2018-10-07T18:44:02.518Z,12.50
2018-10-07T18:46:30.761Z,12.60
2018-10-07T18:48:58.953Z,12.50
2018-10-07T18:51:27.830Z,12.40
2018-10-07T18:53:56.265Z,12.40
2018-10-07T18:56:24.466Z,12.40
2018-10-07T18:58:52.582Z,12.60
2018-10-07T19:01:20.662Z,12.60
2018-10-07T19:03:48.739Z,12.30
2018-10-07T19:06:16.982Z,12.20
2018-10-07T19:08:45.053Z,12.10
2018-10-07T19:11:14.086Z,11.90
2018-10-07T19:13:42.209Z,11.90
2018-10-07T19:16:14.189Z,11.80
2018-10-07T19:18:42.957Z,11.80
2018-10-07T19:21:13.348Z,11.80
2018-10-07T19:23:43.155Z,11.70
2018-10-07T19:26:11.234Z,11.70
2018-10-07T19:28:40.394Z,11.60
2018-10-07T19:31:08.769Z,11.60
2018-10-07T19:33:37.955Z,11.50
2018-10-07T19:36:06.097Z,11.40
2018-10-07T19:38:34.459Z,11.40
2018-10-07T19:41:02.912Z,11.30
2018-10-07T19:43:31.173Z,11.20
2018-10-07T19:45:59.421Z,11.20
2018-10-07T19:48:27.520Z,11.10
2018-10-07T19:50:55.873Z,11.10
2018-10-07T19:53:24.949Z,11.00
2018-10-07T19:55:53.361Z,10.90
2018-10-07T19:58:23.862Z,10.80
2018-10-07T20:00:56.025Z,10.80
2018-10-07T20:03:24.426Z,10.70
2018-10-07T20:05:55.608Z,10.70
2018-10-07T20:08:25.770Z,10.60
2018-10-07T20:10:54.050Z,10.50
2018-10-07T20:13:23.680Z,10.50
2018-10-07T20:15:52.256Z,10.40
2018-10-07T20:18:25.352Z,10.30
2018-10-07T20:20:55.355Z,10.20
2018-10-07T20:23:23.533Z,10.20
2018-10-07T20:25:52.484Z,10.10
2018-10-07T20:28:22.783Z,10.10
2018-10-07T20:30:52.243Z,10.00
2018-10-07T20:33:20.312Z,10.00
2018-10-07T20:35:48.545Z,9.90
2018-10-07T20:38:16.637Z,9.90
2018-10-07T20:40:45.064Z,9.80
2018-10-07T20:43:13.613Z,9.80
2018-10-07T20:45:41.793Z,9.70
2018-10-07T20:48:10.819Z,9.60
2018-10-07T20:50:39.561Z,9.60
2018-10-07T20:53:07.936Z,9.50
2018-10-07T20:55:38.425Z,9.50
2018-10-07T20:58:08.248Z,9.50
2018-10-07T21:00:36.364Z,9.40
2018-10-07T21:03:04.452Z,9.40
2018-10-07T21:05:33.343Z,9.40
2018-10-07T21:08:01.569Z,9.30
2018-10-07T21:10:31.402Z,9.30
2018-10-07T21:13:03.298Z,9.30
2018-10-07T21:15:33.577Z,9.20
2018-10-07T21:18:05.375Z,9.20
2018-10-07T21:20:34.489Z,9.20
2018-10-07T21:23:03.438Z,9.20
2018-10-07T21:25:33.553Z,9.20
2018-10-07T21:28:02.403Z,9.20
2018-10-07T21:30:31.592Z,9.10
2018-10-07T21:33:02.673Z,9.10
2018-10-07T21:35:32.861Z,9.10
2018-10-07T21:38:00.977Z,9.10
2018-10-07T21:40:33.312Z,9.00
2018-10-07T21:43:03.497Z,8.90
2018-10-07T21:45:32.790Z,8.90
2018-10-07T21:48:05.223Z,8.90
2018-10-07T21:50:33.465Z,8.80
2018-10-07T21:53:02.144Z,8.80
2018-10-07T21:55:31.601Z,8.80
2018-10-07T21:57:59.703Z,8.80
2018-10-07T22:00:27.741Z,8.80
2018-10-07T22:02:55.816Z,8.70
2018-10-07T22:05:23.902Z,8.70
2018-10-07T22:07:52.035Z,8.70
2018-10-07T22:10:20.068Z,8.80
2018-10-07T22:12:48.200Z,8.70
2018-10-07T22:15:16.295Z,8.80
2018-10-07T22:17:44.344Z,8.80
2018-10-07T22:20:12.517Z,8.80
2018-10-07T22:22:40.508Z,8.80
2018-10-07T22:25:08.573Z,8.80
2018-10-07T22:27:36.661Z,8.80
2018-10-07T22:30:04.900Z,8.80
2018-10-07T22:32:32.984Z,8.80
2018-10-07T22:35:01.044Z,8.80
2018-10-07T22:37:29.115Z,8.80
2018-10-07T22:39:57.185Z,8.80
2018-10-07T22:42:25.256Z,8.80
2018-10-07T22:44:53.312Z,8.80
2018-10-07T22:47:21.352Z,8.80
2018-10-07T22:49:49.423Z,8.80
2018-10-07T22:52:17.448Z,8.80
2018-10-07T22:54:45.501Z,8.80
2018-10-07T22:57:13.569Z,8.80
2018-10-07T22:59:41.616Z,8.80
2018-10-07T23:02:09.642Z,8.80
2018-10-07T23:04:37.701Z,8.80
2018-10-07T23:07:05.773Z,8.70
2018-10-07T23:09:33.832Z,8.70
2018-10-07T23:12:01.901Z,8.60
2018-10-07T23:14:29.965Z,8.60
2018-10-07T23:16:57.988Z,8.50
2018-10-07T23:19:26.040Z,8.50
2018-10-07T23:21:54.083Z,8.40
2018-10-07T23:24:22.132Z,8.40
2018-10-07T23:26:50.224Z,8.40
2018-10-07T23:29:18.260Z,8.40
2018-10-07T23:31:46.328Z,8.40
2018-10-07T23:34:14.380Z,8.30
2018-10-07T23:36:42.412Z,8.20
2018-10-07T23:39:11.596Z,8.20
2018-10-07T23:41:39.645Z,8.20
2018-10-07T23:44:07.941Z,8.10
2018-10-07T23:46:36.001Z,8.10
2018-10-07T23:49:04.064Z,8.10
2018-10-07T23:51:32.147Z,8.00
2018-10-07T23:54:00.123Z,8.00
2018-10-07T23:56:28.170Z,8.00
2018-10-07T23:58:56.199Z,8.00
